createdAt,value
2022-11-27T00:01:25.924Z,2.57
2022-11-27T00:03:54.777Z,2.70
2022-11-27T00:06:25.560Z,2.20
2022-11-27T00:08:53.617Z,1.90
2022-11-27T00:11:23.020Z,2.43
2022-11-27T00:13:51.831Z,2.27
2022-11-27T00:16:20.980Z,2.60
2022-11-27T00:18:49.482Z,2.50
2022-11-27T00:21:22.257Z,2.30
2022-11-27T00:23:52.562Z,2.30
2022-11-27T00:26:21.267Z,2.17
2022-11-27T00:28:49.367Z,2.43
2022-11-27T00:31:19.121Z,2.17
2022-11-27T00:33:47.571Z,2.13
2022-11-27T00:36:16.471Z,2.10
2022-11-27T00:38:44.492Z,2.10
2022-11-27T00:41:17.247Z,3.33
2022-11-27T00:43:45.760Z,2.30
2022-11-27T00:46:13.835Z,2.60
2022-11-27T00:48:42.147Z,2.40
2022-11-27T00:51:12.812Z,2.00
2022-11-27T00:53:40.772Z,2.03
2022-11-27T00:56:09.537Z,1.80
2022-11-27T00:58:38.832Z,2.00
2022-11-27T01:01:08.410Z,2.07
2022-11-27T01:03:36.815Z,2.30
2022-11-27T01:06:06.702Z,2.07
2022-11-27T01:08:35.082Z,2.17
2022-11-27T01:11:03.274Z,1.80
2022-11-27T01:13:33.421Z,2.17
2022-11-27T01:16:03.657Z,1.90
2022-11-27T01:18:32.365Z,1.80
2022-11-27T01:21:00.324Z,1.80
2022-11-27T01:23:28.645Z,1.70
2022-11-27T01:25:56.643Z,1.83
2022-11-27T01:28:25.336Z,1.60
2022-11-27T01:30:53.383Z,1.77
2022-11-27T01:33:22.754Z,1.60
2022-11-27T01:35:57.581Z,2.30
2022-11-27T01:38:26.582Z,1.70
2022-11-27T01:40:58.689Z,2.00
2022-11-27T01:43:44.005Z,1.87
2022-11-27T01:46:24.929Z,2.17
2022-11-27T01:48:56.904Z,1.80
2022-11-27T01:51:25.501Z,2.00
2022-11-27T01:53:54.959Z,1.80
2022-11-27T01:56:24.889Z,1.53
2022-11-27T01:58:53.832Z,1.40
2022-11-27T02:01:24.235Z,1.80
2022-11-27T02:03:52.295Z,1.70
2022-11-27T02:06:21.642Z,1.53
2022-11-27T02:08:49.619Z,1.63
2022-11-27T02:11:25.221Z,1.63
2022-11-27T02:14:01.190Z,2.00
2022-11-27T02:16:37.790Z,1.40
2022-11-27T02:19:15.245Z,1.57
2022-11-27T02:21:50.608Z,1.80
2022-11-27T02:24:40.360Z,1.83
2022-11-27T02:27:34.167Z,1.70
2022-11-27T02:30:06.349Z,1.43
2022-11-27T02:32:39.050Z,1.37
2022-11-27T02:35:13.995Z,1.63
2022-11-27T02:37:47.512Z,1.50
2022-11-27T02:40:21.226Z,1.53
2022-11-27T02:42:54.264Z,1.40
2022-11-27T02:45:30.209Z,1.50
2022-11-27T02:47:58.806Z,1.40
2022-11-27T02:50:28.672Z,1.40
2022-11-27T02:53:00.635Z,1.60
2022-11-27T02:55:33.344Z,1.67
2022-11-27T02:58:03.356Z,2.03
2022-11-27T03:00:35.310Z,1.60
2022-11-27T03:03:09.444Z,1.43
2022-11-27T03:05:40.527Z,1.60
2022-11-27T03:08:11.249Z,1.60
2022-11-27T03:10:48.914Z,1.53
2022-11-27T03:13:17.158Z,1.40
2022-11-27T03:15:52.695Z,1.10
2022-11-27T03:18:29.948Z,1.40
2022-11-27T03:21:05.858Z,1.47
2022-11-27T03:23:33.789Z,1.77
2022-11-27T03:26:01.696Z,1.37
2022-11-27T03:28:30.227Z,1.40
2022-11-27T03:30:59.789Z,1.23
2022-11-27T03:33:27.771Z,1.47
2022-11-27T03:35:55.831Z,1.30
2022-11-27T03:38:23.823Z,1.50
2022-11-27T03:40:57.500Z,1.33
2022-11-27T03:43:29.425Z,1.37
2022-11-27T03:46:07.178Z,1.30
2022-11-27T03:48:39.228Z,1.33
2022-11-27T03:51:13.092Z,1.30
2022-11-27T03:53:51.452Z,1.37
2022-11-27T03:56:28.698Z,1.20
2022-11-27T03:59:01.107Z,1.40
2022-11-27T04:01:31.826Z,1.10
2022-11-27T04:03:59.881Z,1.40
2022-11-27T04:06:27.827Z,1.10
2022-11-27T04:08:55.900Z,1.17
2022-11-27T04:11:23.877Z,1.30
2022-11-27T04:13:52.208Z,1.23
2022-11-27T04:16:20.326Z,1.33
2022-11-27T04:18:49.752Z,1.57
2022-11-27T04:21:18.055Z,1.57
2022-11-27T04:23:46.142Z,1.10
2022-11-27T04:26:14.234Z,1.20
2022-11-27T04:28:42.334Z,1.43
2022-11-27T04:31:10.521Z,1.20
2022-11-27T04:33:38.427Z,1.03
2022-11-27T04:36:08.251Z,0.93
2022-11-27T04:38:36.151Z,1.13
2022-11-27T04:41:04.018Z,0.90
2022-11-27T04:43:31.945Z,1.27
2022-11-27T04:45:59.895Z,1.30
2022-11-27T04:48:27.903Z,1.30
2022-11-27T04:50:56.114Z,1.20
2022-11-27T04:53:25.479Z,1.30
2022-11-27T04:55:53.452Z,1.30
2022-11-27T04:58:21.336Z,1.30
2022-11-27T05:00:49.464Z,1.30
2022-11-27T05:03:17.418Z,1.47
2022-11-27T05:05:45.342Z,1.40
2022-11-27T05:08:13.233Z,1.30
2022-11-27T05:10:42.546Z,1.13
2022-11-27T05:13:10.533Z,1.60
2022-11-27T05:15:38.505Z,1.43
2022-11-27T05:18:06.862Z,1.00
2022-11-27T05:20:34.756Z,1.30
2022-11-27T05:23:02.706Z,1.37
2022-11-27T05:25:30.579Z,1.50
2022-11-27T05:27:59.830Z,1.30
2022-11-27T05:30:28.112Z,1.30
2022-11-27T05:32:56.115Z,1.30
2022-11-27T05:35:24.001Z,1.70
2022-11-27T05:37:51.922Z,1.30
2022-11-27T05:40:20.014Z,1.20
2022-11-27T05:42:47.937Z,1.40
2022-11-27T05:45:17.445Z,2.30
2022-11-27T05:47:45.328Z,2.13
2022-11-27T05:50:13.245Z,2.07
2022-11-27T05:52:41.116Z,1.93
2022-11-27T05:55:09.989Z,1.70
2022-11-27T05:57:37.859Z,1.40
2022-11-27T06:00:07.485Z,1.23
2022-11-27T06:02:36.906Z,1.50
2022-11-27T06:05:05.146Z,1.40
2022-11-27T06:07:33.207Z,1.40
2022-11-27T06:10:01.111Z,1.43
2022-11-27T06:12:28.999Z,1.33
2022-11-27T06:14:56.900Z,1.43
2022-11-27T06:17:25.161Z,1.57
2022-11-27T06:19:54.449Z,1.50
2022-11-27T06:22:22.427Z,1.77
2022-11-27T06:24:50.316Z,1.63
2022-11-27T06:27:18.195Z,1.70
2022-11-27T06:29:46.130Z,1.33
2022-11-27T06:32:14.495Z,1.63
2022-11-27T06:34:42.576Z,1.97
2022-11-27T06:37:13.586Z,1.43
2022-11-27T06:39:41.654Z,1.87
2022-11-27T06:42:09.560Z,1.70
2022-11-27T06:44:37.910Z,1.30
2022-11-27T06:47:06.104Z,1.57
2022-11-27T06:49:34.465Z,1.50
2022-11-27T06:52:02.622Z,1.50
2022-11-27T06:54:31.970Z,1.53
2022-11-27T06:56:59.929Z,1.87
2022-11-27T06:59:27.896Z,1.77
2022-11-27T07:01:55.854Z,1.50
2022-11-27T07:04:23.759Z,1.80
2022-11-27T07:06:51.988Z,1.40
2022-11-27T07:09:19.877Z,1.50
2022-11-27T07:11:49.095Z,1.80
2022-11-27T07:14:17.025Z,1.67
2022-11-27T07:16:44.941Z,1.97
2022-11-27T07:19:12.884Z,1.60
2022-11-27T07:21:41.619Z,1.20
2022-11-27T07:24:09.704Z,1.40
2022-11-27T07:26:37.636Z,1.10
2022-11-27T07:29:07.071Z,1.43
2022-11-27T07:31:34.986Z,1.20
2022-11-27T07:34:05.708Z,1.10
2022-11-27T07:36:34.888Z,1.20
2022-11-27T07:39:02.763Z,1.40
2022-11-27T07:41:33.888Z,1.53
2022-11-27T07:44:02.280Z,1.27
2022-11-27T07:46:31.670Z,1.30
2022-11-27T07:49:00.617Z,1.30
2022-11-27T07:51:28.994Z,1.40
2022-11-27T07:53:57.014Z,1.20
2022-11-27T07:56:24.887Z,1.47
2022-11-27T07:58:52.868Z,1.80
2022-11-27T08:01:21.745Z,1.70
2022-11-27T08:03:51.145Z,1.53
2022-11-27T08:06:21.506Z,1.80
2022-11-27T08:08:50.026Z,1.77
2022-11-27T08:11:20.242Z,1.63
2022-11-27T08:13:48.253Z,2.13
2022-11-27T08:16:16.256Z,2.07
2022-11-27T08:18:44.282Z,1.93
2022-11-27T08:21:13.751Z,2.00
2022-11-27T08:23:42.106Z,2.37
2022-11-27T08:26:11.145Z,2.77
2022-11-27T08:28:40.303Z,2.97
2022-11-27T08:31:10.395Z,3.03
2022-11-27T08:33:38.381Z,2.37
2022-11-27T08:36:09.740Z,2.80
2022-11-27T08:38:40.953Z,23.37
2022-11-27T08:41:10.213Z,17.67
2022-11-27T08:43:38.262Z,7.53
2022-11-27T08:46:07.778Z,7.03
2022-11-27T08:48:36.373Z,4.63
2022-11-27T08:51:08.235Z,4.60
2022-11-27T08:53:37.488Z,3.83
2022-11-27T08:56:12.898Z,4.63
2022-11-27T08:58:41.666Z,2.90
2022-11-27T09:01:12.484Z,2.93
2022-11-27T09:03:40.565Z,2.80
2022-11-27T09:06:10.051Z,2.23
2022-11-27T09:08:38.406Z,2.50
2022-11-27T09:11:06.684Z,2.37
2022-11-27T09:13:37.076Z,2.20
2022-11-27T09:16:05.545Z,2.67
2022-11-27T09:18:33.751Z,2.53
2022-11-27T09:21:02.660Z,2.40
2022-11-27T09:23:30.888Z,3.13
2022-11-27T09:26:00.195Z,3.63
2022-11-27T09:28:31.335Z,4.10
2022-11-27T09:31:02.858Z,2.80
2022-11-27T09:33:32.797Z,3.00
2022-11-27T09:36:05.716Z,3.00
2022-11-27T09:38:33.746Z,3.57
2022-11-27T09:41:08.416Z,3.57
2022-11-27T09:43:42.923Z,3.83
2022-11-27T09:46:19.485Z,2.97
2022-11-27T09:48:51.556Z,3.00
2022-11-27T09:51:26.517Z,2.47
2022-11-27T09:54:01.438Z,2.60
2022-11-27T09:56:31.012Z,2.80
2022-11-27T09:59:00.569Z,3.10
2022-11-27T10:01:38.532Z,2.67
2022-11-27T10:04:15.035Z,2.83
2022-11-27T10:07:00.364Z,2.83
2022-11-27T10:09:37.010Z,3.20
2022-11-27T10:12:10.814Z,2.90
2022-11-27T10:14:48.374Z,3.40
2022-11-27T10:17:22.415Z,3.07
2022-11-27T10:19:57.523Z,2.83
2022-11-27T10:22:32.023Z,3.10
2022-11-27T10:25:12.552Z,3.03
2022-11-27T10:27:46.310Z,2.90
2022-11-27T10:30:17.130Z,3.30
2022-11-27T10:32:56.438Z,2.90
2022-11-27T10:35:26.931Z,2.33
2022-11-27T10:38:02.290Z,2.60
2022-11-27T10:40:40.760Z,2.90
2022-11-27T10:43:14.336Z,2.90
2022-11-27T10:45:46.675Z,2.73
2022-11-27T10:48:16.713Z,2.70
2022-11-27T10:50:46.037Z,3.03
2022-11-27T10:53:20.379Z,3.30
2022-11-27T10:56:06.078Z,3.10
2022-11-27T10:58:38.542Z,3.03
2022-11-27T11:01:08.833Z,2.57
2022-11-27T11:03:38.365Z,3.17
2022-11-27T11:06:20.873Z,2.40
2022-11-27T11:08:50.251Z,2.70
2022-11-27T11:11:27.383Z,2.93
2022-11-27T11:13:55.741Z,2.73
2022-11-27T11:16:28.336Z,2.83
2022-11-27T11:19:02.944Z,2.97
2022-11-27T11:21:33.685Z,3.20
2022-11-27T11:24:03.619Z,2.93
2022-11-27T11:26:35.144Z,2.40
2022-11-27T11:29:06.026Z,3.00
2022-11-27T11:31:38.344Z,3.10
2022-11-27T11:34:22.461Z,3.27
2022-11-27T11:36:58.510Z,2.60
2022-11-27T11:39:29.261Z,3.17
2022-11-27T11:41:57.860Z,3.00
2022-11-27T11:44:34.239Z,2.80
2022-11-27T11:47:02.694Z,2.50
2022-11-27T11:49:35.521Z,2.70
2022-11-27T11:52:11.798Z,2.43
2022-11-27T11:55:04.841Z,3.40
2022-11-27T11:58:12.531Z,2.50
2022-11-27T12:01:04.832Z,2.80
2022-11-27T12:03:40.308Z,2.80
2022-11-27T12:06:21.447Z,2.80
2022-11-27T12:09:09.183Z,2.83
2022-11-27T12:11:45.290Z,2.77
2022-11-27T12:14:25.801Z,3.30
2022-11-27T12:17:07.170Z,2.87
2022-11-27T12:19:56.282Z,2.77
2022-11-27T12:22:45.241Z,2.87
2022-11-27T12:25:26.399Z,3.10
2022-11-27T12:28:19.703Z,2.80
2022-11-27T12:30:55.232Z,3.13
2022-11-27T12:33:39.240Z,3.47
2022-11-27T12:36:14.978Z,3.17
2022-11-27T12:39:11.124Z,3.10
2022-11-27T12:42:01.567Z,3.20
2022-11-27T12:44:37.419Z,3.33
2022-11-27T12:47:10.830Z,3.27
2022-11-27T12:49:43.631Z,3.20
2022-11-27T12:52:16.751Z,3.43
2022-11-27T12:54:51.961Z,3.10
2022-11-27T12:57:23.098Z,3.30
2022-11-27T12:59:56.676Z,3.80
2022-11-27T13:02:34.979Z,3.50
2022-11-27T13:05:06.951Z,4.23
2022-11-27T13:07:41.787Z,3.40
2022-11-27T13:10:21.632Z,3.57
2022-11-27T13:12:56.119Z,3.13
2022-11-27T13:15:29.013Z,3.30
2022-11-27T13:18:04.025Z,3.00
2022-11-27T13:20:36.960Z,3.00
2022-11-27T13:23:05.269Z,3.60
2022-11-27T13:25:40.560Z,3.13
2022-11-27T13:28:10.010Z,3.10
2022-11-27T13:30:39.096Z,2.50
2022-11-27T13:33:08.087Z,3.20
2022-11-27T13:35:42.008Z,2.70
2022-11-27T13:38:13.181Z,3.10
2022-11-27T13:40:45.013Z,3.53
2022-11-27T13:43:24.221Z,3.57
2022-11-27T13:45:52.811Z,2.83
2022-11-27T13:48:30.573Z,3.03
2022-11-27T13:51:00.236Z,2.90
2022-11-27T13:53:33.740Z,3.90
2022-11-27T13:56:03.171Z,2.93
2022-11-27T13:58:33.373Z,3.23
2022-11-27T14:01:14.106Z,3.60
2022-11-27T14:03:42.134Z,3.23
2022-11-27T14:06:19.268Z,3.33
2022-11-27T14:09:01.543Z,3.73
2022-11-27T14:11:35.480Z,3.60
2022-11-27T14:14:13.064Z,4.00
2022-11-27T14:16:42.545Z,4.50
2022-11-27T14:19:30.614Z,3.20
2022-11-27T14:22:01.795Z,3.73
2022-11-27T14:24:40.758Z,3.97
2022-11-27T14:27:17.639Z,3.63
2022-11-27T14:29:46.091Z,4.00
2022-11-27T14:32:16.082Z,4.17
2022-11-27T14:34:44.662Z,4.10
2022-11-27T14:37:22.426Z,4.30
2022-11-27T14:39:50.342Z,3.10
2022-11-27T14:42:28.285Z,4.13
2022-11-27T14:45:04.579Z,3.80
2022-11-27T14:47:33.508Z,4.10
2022-11-27T14:50:03.507Z,3.40
2022-11-27T14:52:31.806Z,4.60
2022-11-27T14:55:01.620Z,4.10
2022-11-27T14:57:31.950Z,3.73
2022-11-27T15:00:17.269Z,4.33
2022-11-27T15:02:45.858Z,4.50
2022-11-27T15:05:23.674Z,4.50
2022-11-27T15:07:54.941Z,4.33
2022-11-27T15:10:33.819Z,5.33
2022-11-27T15:13:04.555Z,4.57
2022-11-27T15:15:34.837Z,4.60
2022-11-27T15:18:05.393Z,4.60
2022-11-27T15:20:38.962Z,4.67
2022-11-27T15:23:17.417Z,4.80
2022-11-27T15:25:47.354Z,4.63
2022-11-27T15:28:29.529Z,5.20
2022-11-27T15:30:58.171Z,5.27
2022-11-27T15:33:28.351Z,4.97
2022-11-27T15:36:15.008Z,4.90
2022-11-27T15:38:43.453Z,5.43
2022-11-27T15:41:21.627Z,5.90
2022-11-27T15:43:51.015Z,6.50
2022-11-27T15:46:25.847Z,5.60
2022-11-27T15:48:54.013Z,5.63
2022-11-27T15:51:22.036Z,6.23
2022-11-27T15:53:49.931Z,6.23
2022-11-27T15:56:18.124Z,6.17
2022-11-27T15:58:46.044Z,4.90
2022-11-27T16:01:15.388Z,6.70
2022-11-27T16:03:43.481Z,5.40
2022-11-27T16:06:11.452Z,5.70
2022-11-27T16:08:39.633Z,6.33
2022-11-27T16:11:11.344Z,5.83
2022-11-27T16:13:39.267Z,6.73
2022-11-27T16:16:09.365Z,5.87
2022-11-27T16:18:38.775Z,5.80
2022-11-27T16:21:09.176Z,5.93
2022-11-27T16:23:37.743Z,5.50
2022-11-27T16:26:06.060Z,5.47
2022-11-27T16:28:34.955Z,5.80
2022-11-27T16:31:07.724Z,6.40
2022-11-27T16:33:35.615Z,5.67
2022-11-27T16:36:09.293Z,5.60
2022-11-27T16:38:37.641Z,5.70
2022-11-27T16:41:07.547Z,6.70
2022-11-27T16:43:38.023Z,5.20
2022-11-27T16:46:07.931Z,6.03
2022-11-27T16:48:36.438Z,5.13
2022-11-27T16:51:07.514Z,4.67
2022-11-27T16:53:38.795Z,5.50
2022-11-27T16:56:07.519Z,4.90
2022-11-27T16:58:36.506Z,5.33
2022-11-27T17:01:06.383Z,5.77
2022-11-27T17:03:34.380Z,5.00
2022-11-27T17:06:02.762Z,5.40
2022-11-27T17:08:32.013Z,5.97
2022-11-27T17:11:02.521Z,5.80
2022-11-27T17:13:33.897Z,6.10
2022-11-27T17:16:01.894Z,6.13
2022-11-27T17:18:29.828Z,5.60
2022-11-27T17:21:02.423Z,5.93
2022-11-27T17:23:31.682Z,5.13
2022-11-27T17:25:59.859Z,5.47
2022-11-27T17:28:28.080Z,5.67
2022-11-27T17:30:55.961Z,6.20
2022-11-27T17:33:23.856Z,5.70
2022-11-27T17:35:51.816Z,5.50
2022-11-27T17:38:19.755Z,6.60
2022-11-27T17:40:49.000Z,6.90
2022-11-27T17:43:16.952Z,6.97
2022-11-27T17:45:44.886Z,6.73
2022-11-27T17:48:12.786Z,7.10
2022-11-27T17:50:40.686Z,7.67
2022-11-27T17:53:08.612Z,6.53
2022-11-27T17:55:36.495Z,6.60
2022-11-27T17:58:05.768Z,7.17
2022-11-27T18:00:34.060Z,7.20
2022-11-27T18:03:07.210Z,7.00
2022-11-27T18:05:38.512Z,7.40
2022-11-27T18:08:07.229Z,7.50
2022-11-27T18:10:35.446Z,7.40
2022-11-27T18:13:04.809Z,7.93
2022-11-27T18:15:32.696Z,8.73
2022-11-27T18:18:00.597Z,8.20
2022-11-27T18:20:29.190Z,8.40
2022-11-27T18:22:57.096Z,8.47
2022-11-27T18:25:25.016Z,7.93
2022-11-27T18:27:52.959Z,9.13
2022-11-27T18:30:22.600Z,8.67
2022-11-27T18:32:50.501Z,8.60
2022-11-27T18:35:18.551Z,7.27
2022-11-27T18:37:46.462Z,7.53
2022-11-27T18:40:14.682Z,7.70
2022-11-27T18:42:42.580Z,8.20
2022-11-27T18:45:31.245Z,8.07
2022-11-27T18:48:00.355Z,7.47
2022-11-27T18:50:29.877Z,8.17
2022-11-27T18:52:57.985Z,7.70
2022-11-27T18:55:25.899Z,7.40
2022-11-27T18:57:54.287Z,8.27
2022-11-27T19:00:22.869Z,9.37
2022-11-27T19:02:50.850Z,8.80
2022-11-27T19:05:20.252Z,8.80
2022-11-27T19:07:48.274Z,8.30
2022-11-27T19:10:16.476Z,8.83
2022-11-27T19:12:44.382Z,8.60
2022-11-27T19:15:12.471Z,9.40
2022-11-27T19:17:40.438Z,7.80
2022-11-27T19:20:09.893Z,8.33
2022-11-27T19:22:40.225Z,8.57
2022-11-27T19:25:08.659Z,9.63
2022-11-27T19:27:36.530Z,9.80
2022-11-27T19:30:04.967Z,12.00
2022-11-27T19:32:32.988Z,12.40
2022-11-27T19:35:05.634Z,9.53
2022-11-27T19:37:36.872Z,10.93
2022-11-27T19:40:08.317Z,18.07
2022-11-27T19:42:36.280Z,13.50
2022-11-27T19:45:04.442Z,9.60
2022-11-27T19:47:32.380Z,9.80
2022-11-27T19:50:00.291Z,10.03
2022-11-27T19:52:28.178Z,9.00
2022-11-27T19:54:56.131Z,10.00
2022-11-27T19:57:25.508Z,9.07
2022-11-27T19:59:53.369Z,10.17
2022-11-27T20:02:21.586Z,10.00
2022-11-27T20:04:49.571Z,9.80
2022-11-27T20:07:17.494Z,9.73
2022-11-27T20:09:45.499Z,10.50
2022-11-27T20:12:14.065Z,11.10
2022-11-27T20:14:43.620Z,10.30
2022-11-27T20:17:11.782Z,11.00
2022-11-27T20:19:39.940Z,11.13
2022-11-27T20:22:08.304Z,9.87
2022-11-27T20:24:52.769Z,12.50
2022-11-27T20:27:25.046Z,10.17
2022-11-27T20:29:56.625Z,12.97
2022-11-27T20:32:24.556Z,11.63
2022-11-27T20:34:52.462Z,11.00
2022-11-27T20:37:20.342Z,11.70
2022-11-27T20:39:48.485Z,11.30
2022-11-27T20:42:16.648Z,11.33
2022-11-27T20:44:44.594Z,11.30
2022-11-27T20:47:13.945Z,11.37
2022-11-27T20:49:42.351Z,10.87
2022-11-27T20:52:11.465Z,11.03
2022-11-27T20:54:39.355Z,10.53
2022-11-27T20:57:08.818Z,11.10
2022-11-27T20:59:36.842Z,10.50
2022-11-27T21:02:05.310Z,11.07
2022-11-27T21:04:34.745Z,12.27
2022-11-27T21:07:02.662Z,11.00
2022-11-27T21:09:30.695Z,10.50
2022-11-27T21:11:58.594Z,11.23
2022-11-27T21:14:26.741Z,11.43
2022-11-27T21:16:57.108Z,10.53
2022-11-27T21:19:28.427Z,10.50
2022-11-27T21:21:58.147Z,11.63
2022-11-27T21:24:28.389Z,10.53
2022-11-27T21:26:56.533Z,12.17
2022-11-27T21:29:25.765Z,12.27
2022-11-27T21:31:55.246Z,10.87
2022-11-27T21:34:23.586Z,10.80
2022-11-27T21:36:51.640Z,10.50
2022-11-27T21:39:21.022Z,11.60
2022-11-27T21:41:49.951Z,12.53
2022-11-27T21:44:18.073Z,12.43
2022-11-27T21:46:46.233Z,11.60
2022-11-27T21:49:15.473Z,12.40
2022-11-27T21:51:43.428Z,12.57
2022-11-27T21:54:14.742Z,13.20
2022-11-27T21:56:44.087Z,12.20
2022-11-27T21:59:15.306Z,10.90
2022-11-27T22:01:45.361Z,11.40
2022-11-27T22:04:13.725Z,12.37
2022-11-27T22:06:43.173Z,12.67
2022-11-27T22:09:15.434Z,11.80
2022-11-27T22:11:45.889Z,12.00
2022-11-27T22:14:15.132Z,12.60
2022-11-27T22:16:45.691Z,10.83
2022-11-27T22:19:15.192Z,11.73
2022-11-27T22:21:43.728Z,11.27
2022-11-27T22:24:16.838Z,11.63
2022-11-27T22:26:48.243Z,11.37
2022-11-27T22:29:16.676Z,12.00
2022-11-27T22:31:44.584Z,10.53
2022-11-27T22:34:12.475Z,11.70
2022-11-27T22:36:40.410Z,12.10
2022-11-27T22:39:08.973Z,11.00
2022-11-27T22:41:38.786Z,11.37
2022-11-27T22:44:08.700Z,10.83
2022-11-27T22:46:37.708Z,9.50
2022-11-27T22:49:07.347Z,10.43
2022-11-27T22:51:36.927Z,11.27
2022-11-27T22:54:06.434Z,10.43
2022-11-27T22:56:34.591Z,10.83
2022-11-27T22:59:30.446Z,10.03
2022-11-27T23:01:52.302Z,11.10
2022-11-27T23:04:20.289Z,10.37
2022-11-27T23:06:48.604Z,10.80
2022-11-27T23:09:17.773Z,10.53
2022-11-27T23:11:45.934Z,10.30
2022-11-27T23:14:13.916Z,9.87
2022-11-27T23:16:41.924Z,10.07
2022-11-27T23:19:12.205Z,10.10
2022-11-27T23:21:40.429Z,9.63
2022-11-27T23:24:10.731Z,9.37
2022-11-27T23:26:38.598Z,8.97
2022-11-27T23:29:06.533Z,10.23
2022-11-27T23:31:36.138Z,10.23
2022-11-27T23:34:05.811Z,9.60
2022-11-27T23:36:36.079Z,11.00
2022-11-27T23:39:06.408Z,10.33
2022-11-27T23:41:34.561Z,10.13
2022-11-27T23:44:02.508Z,10.40
2022-11-27T23:46:31.898Z,10.60
2022-11-27T23:49:00.874Z,10.33
2022-11-27T23:51:31.121Z,10.37
2022-11-27T23:54:01.460Z,11.33
2022-11-27T23:56:31.633Z,9.10
2022-11-27T23:59:00.546Z,9.60
